Airfield :
LOGIN :

Register | Disclaimer

   EN    FR    IT 

 










Legend :    VFR   Marginal VFR   IFR   Intensive IFR   Very Intensive IFR
Visi :
Ceiling :
>= 8 km
>= 3000ft
5 to 8 km
1000 to 3000 ft
1500m to 5 km
500 to 1000 ft
800 to 1500m
200 to 500 ft
< 800m
< 200 ft
Symbols :   Thunderstorms  Fog  Heavy snow  Heavy precipitations  Wind > 20 kt
SIGMETs :     Misc.  Thunderstorms  Icing  Turbulence  Mountain Waves  Volcanic Ashes






- Airport Elevation : 200 ft


EBBL - Klein Brogel AB

CURRENT METAR :
  • 111555Z AUTO 08011G24KT 9999 BKN077/// 32/16 Q1013 BLU

EXPIRED METARs :
  • 111525Z AUTO 04006KT 9999 VCTS FEW078/// SCT096/// 35/16 Q1012 BLU
  • 111523Z 03005KT 9999 VCTS SCT060CB BKN090 34/15 Q1012 BLU FCST CANCEL
  • 111520Z 05005KT 9999 VCTS SCT060CB BKN090 34/16 Q1013 BLU BLU TEMPO GRN
  • 111512Z 06005KT 9999 VCTS SCT060CB BKN090 34/16 Q1013 BLU BLU
  • 111455Z 07005KT 9999 FEW090 SCT200 34/16 Q1013 BLU BLU
  • 111425Z 12005KT 9999 FEW090 SCT200 35/15 Q1013 BLU BLU
  • 111355Z 07005KT 9999 FEW090 SCT200 35/17 Q1013 BLU BLU

TAF TAF EBBL
Valid from the 11 at 13:00 until the 11 at 22:00 UTC


111141Z 1113/1122 09007KT 9999 FEW090 SCT130
PROB30
TEMPO 1113/1122 10012G25KT 4000 -TSRA FEW010 SCT060CB
PROB30
TEMPO 1114/1122 10015G30KT 2000 TSRAGR FEW007 BKN040CB



MET'MAP, your aeronautical weather chart ! - Copyright ORBIFLY December 2007 - Disclaimer

ORBIFLY MET'MAP TEAM :

Programming & Development : Alexandra Zaïnal
Concept & original design : Baudouin d'Aumeries
Assistance for programming : Marc-Olivier Méhu
Technical & hardware support : Manuel Goepfert

Contact : metmap@orbifly.com




SOURCES & CREDITS :

   NOAA